createdAt,value
2018-01-01T00:00:38.070Z,95613.39
2018-01-01T00:03:05.758Z,95617.40
2018-01-01T00:05:33.688Z,95610.55
2018-01-01T00:08:01.519Z,95616.48
2018-01-01T00:10:29.363Z,95616.39
2018-01-01T00:12:57.308Z,95604.58
2018-01-01T00:15:26.297Z,95605.43
2018-01-01T00:17:54.411Z,95612.98
2018-01-01T00:20:23.396Z,95613.34
2018-01-01T00:22:51.169Z,95615.00
2018-01-01T00:25:20.093Z,95607.72
2018-01-01T00:27:48.594Z,95610.12
2018-01-01T00:30:17.333Z,95612.51
2018-01-01T00:32:45.848Z,95608.70
2018-01-01T00:35:14.056Z,95615.47
2018-01-01T00:37:41.852Z,95613.45
2018-01-01T00:40:10.468Z,95608.98
2018-01-01T00:42:38.158Z,95603.20
2018-01-01T00:45:05.932Z,95599.22
2018-01-01T00:47:35.576Z,95606.50
2018-01-01T00:50:09.146Z,95406.08
2018-01-01T01:02:06.134Z,95610.30
2018-01-01T01:04:36.382Z,95617.41
2018-01-01T01:07:04.484Z,95619.44
2018-01-01T01:09:32.858Z,95611.73
2018-01-01T01:12:00.564Z,95613.64
2018-01-01T01:14:28.277Z,95609.55
2018-01-01T01:16:56.140Z,95613.67
2018-01-01T01:19:24.396Z,95609.80
2018-01-01T01:21:52.133Z,95619.80
2018-01-01T01:24:20.015Z,95616.01
2018-01-01T01:26:48.633Z,95613.14
2018-01-01T01:29:16.281Z,95606.33
2018-01-01T01:31:43.953Z,95602.49
2018-01-01T01:34:12.684Z,95602.61
2018-01-01T01:36:40.334Z,95606.20
2018-01-01T01:39:08.116Z,95597.16
2018-01-01T01:41:35.987Z,95592.86
2018-01-01T01:44:03.608Z,95582.77
2018-01-01T01:46:32.196Z,95578.47
2018-01-01T01:49:00.288Z,95582.10
2018-01-01T01:51:30.988Z,95576.66
2018-01-01T01:53:58.848Z,95578.78
2018-01-01T01:56:27.036Z,95572.67
2018-01-01T01:58:56.747Z,95573.66
2018-01-01T02:04:02.557Z,95565.04
2018-01-01T02:06:30.982Z,95556.44
2018-01-01T02:09:00.540Z,95557.14
2018-01-01T02:11:28.957Z,95548.16
2018-01-01T02:13:57.373Z,95550.75
2018-01-01T02:16:24.926Z,95539.61
2018-01-01T02:18:52.592Z,95536.32
2018-01-01T02:21:20.472Z,95532.86
2018-01-01T02:23:48.224Z,95532.01
2018-01-01T02:26:17.525Z,95530.92
2018-01-01T02:28:45.189Z,95535.50
2018-01-01T02:31:12.913Z,95541.84
2018-01-01T02:33:40.617Z,95535.44
2018-01-01T02:36:12.253Z,95533.34
2018-01-01T02:38:39.985Z,95529.97
2018-01-01T02:41:07.975Z,95524.42
2018-01-01T02:43:35.823Z,95524.72
2018-01-01T02:46:04.707Z,95523.53
2018-01-01T02:48:34.206Z,95526.55
2018-01-01T02:51:02.890Z,95522.11
2018-01-01T02:53:31.222Z,95520.05
2018-01-01T02:55:59.096Z,95521.97
2018-01-01T02:58:26.734Z,95519.78
2018-01-01T03:00:54.542Z,95517.28
2018-01-01T03:03:23.228Z,95519.16
2018-01-01T03:05:53.331Z,95519.42
2018-01-01T03:08:22.166Z,95520.80
2018-01-01T03:10:49.917Z,95525.17
2018-01-01T03:13:18.563Z,95520.59
2018-01-01T03:15:46.637Z,95521.19
2018-01-01T03:18:14.369Z,95522.73
2018-01-01T03:20:42.018Z,95498.58
2018-01-01T03:23:09.911Z,95518.93
2018-01-01T03:25:37.563Z,95518.27
2018-01-01T03:28:05.273Z,95519.48
2018-01-01T03:30:33.401Z,95522.56
2018-01-01T03:33:01.585Z,95525.14
2018-01-01T03:35:29.216Z,95529.05
2018-01-01T03:37:56.885Z,95530.02
2018-01-01T03:40:24.790Z,95537.16
2018-01-01T03:42:52.460Z,95528.20
2018-01-01T03:45:20.117Z,95525.30
2018-01-01T03:47:47.805Z,95527.84
2018-01-01T03:50:15.502Z,95526.36
2018-01-01T03:52:43.227Z,95531.78
2018-01-01T03:55:11.466Z,95523.97
2018-01-01T03:57:39.319Z,95529.06
2018-01-01T04:00:07.903Z,95525.24
2018-01-01T04:02:35.639Z,95527.47
2018-01-01T04:05:03.858Z,95521.66
2018-01-01T04:07:32.370Z,95521.21
2018-01-01T04:10:01.938Z,95523.55
2018-01-01T04:12:33.753Z,95524.34
2018-01-01T04:15:01.869Z,95514.14
2018-01-01T04:17:29.952Z,95514.17
2018-01-01T04:19:59.189Z,95514.92
2018-01-01T04:22:28.616Z,95518.00
2018-01-01T04:24:56.415Z,95508.73
2018-01-01T04:27:25.147Z,95515.39
2018-01-01T04:29:53.602Z,95505.64
2018-01-01T04:32:21.277Z,95508.23
2018-01-01T04:34:48.927Z,95499.89
2018-01-01T04:37:17.547Z,95502.97
2018-01-01T04:39:45.290Z,95508.48
2018-01-01T04:42:15.953Z,95508.43
2018-01-01T04:44:43.650Z,95502.91
2018-01-01T04:47:11.311Z,95510.45
2018-01-01T04:49:39.374Z,95506.63
2018-01-01T04:52:07.025Z,95511.39
2018-01-01T04:54:34.776Z,95509.99
2018-01-01T04:57:02.443Z,95492.98
2018-01-01T04:59:30.186Z,95501.01
2018-01-01T05:02:02.330Z,95495.09
2018-01-01T05:04:33.352Z,95497.37
2018-01-01T05:07:05.297Z,95494.31
2018-01-01T05:09:33.112Z,95495.97
2018-01-01T05:12:05.058Z,95494.37
2018-01-01T05:29:17.644Z,95508.76
2018-01-01T05:31:46.350Z,95495.16
2018-01-01T05:34:14.215Z,95493.86
2018-01-01T05:36:42.083Z,95494.95
2018-01-01T05:39:09.756Z,95492.62
2018-01-01T05:41:37.387Z,95496.41
2018-01-01T05:44:05.090Z,95496.27
2018-01-01T05:46:32.749Z,95504.48
2018-01-01T05:49:00.440Z,95500.06
2018-01-01T05:51:28.126Z,95507.25
2018-01-01T05:53:55.832Z,95508.21
2018-01-01T05:56:23.474Z,95506.71
2018-01-01T05:58:51.075Z,95502.63
2018-01-01T06:01:19.901Z,95503.24
2018-01-01T06:03:47.676Z,95514.52
2018-01-01T06:06:15.326Z,95513.66
2018-01-01T06:08:43.998Z,95513.88
2018-01-01T06:11:11.671Z,95518.52
2018-01-01T06:13:39.285Z,95517.61
2018-01-01T06:16:06.968Z,95522.73
2018-01-01T06:18:34.687Z,95523.33
2018-01-01T06:21:02.480Z,95517.17
2018-01-01T06:23:30.231Z,95512.61
2018-01-01T06:25:58.584Z,95521.92
2018-01-01T06:28:26.407Z,95518.11
2018-01-01T06:30:54.102Z,95508.42
2018-01-01T06:33:22.408Z,95515.82
2018-01-01T06:35:50.224Z,95516.39
2018-01-01T06:38:18.104Z,95518.11
2018-01-01T06:40:46.733Z,95511.41
2018-01-01T06:43:14.442Z,95516.47
2018-01-01T06:45:42.153Z,95515.77
2018-01-01T06:48:10.141Z,95508.25
2018-01-01T06:50:37.838Z,95507.05
2018-01-01T06:53:05.527Z,95509.85
2018-01-01T06:55:33.250Z,95513.59
2018-01-01T06:58:00.977Z,95507.72
2018-01-01T07:00:29.105Z,95510.32
2018-01-01T07:02:56.978Z,95501.63
2018-01-01T07:05:25.514Z,95503.41
2018-01-01T07:07:58.434Z,95508.61
2018-01-01T07:10:27.611Z,95515.03
2018-01-01T07:13:12.433Z,95515.17
2018-01-01T07:15:40.100Z,95508.08
2018-01-01T07:18:07.830Z,95507.38
2018-01-01T07:20:35.478Z,95512.26
2018-01-01T07:23:03.156Z,95506.24
2018-01-01T07:25:30.975Z,95512.27
2018-01-01T07:27:58.784Z,95512.62
2018-01-01T07:30:27.407Z,95496.41
2018-01-01T07:32:55.167Z,95506.09
2018-01-01T07:35:22.815Z,95508.48
2018-01-01T07:37:50.543Z,95499.02
2018-01-01T07:40:18.252Z,95502.70
2018-01-01T07:42:45.940Z,95499.75
2018-01-01T07:45:14.530Z,95501.51
2018-01-01T07:47:42.352Z,95501.86
2018-01-01T07:50:10.640Z,95505.50
2018-01-01T07:52:38.444Z,95501.38
2018-01-01T07:55:35.061Z,95508.88
2018-01-01T07:58:05.689Z,95501.55
2018-01-01T08:00:33.362Z,95502.81
2018-01-01T08:03:00.996Z,95512.14
2018-01-01T08:05:28.816Z,95509.19
2018-01-01T08:10:33.837Z,95500.74
2018-01-01T08:13:01.499Z,95504.22
2018-01-01T08:15:29.107Z,95490.09
2018-01-01T08:17:59.794Z,95494.33
2018-01-01T08:20:27.512Z,95493.98
2018-01-01T08:22:55.199Z,95492.85
2018-01-01T08:28:43.720Z,95487.70
2018-01-01T08:31:44.425Z,95490.73
2018-01-01T08:38:19.513Z,95490.88
2018-01-01T08:40:48.967Z,95483.65
2018-01-01T08:43:17.018Z,95456.23
2018-01-01T08:45:45.032Z,95471.84
2018-01-01T08:48:13.768Z,95466.80
2018-01-01T08:50:41.501Z,95470.62
2018-01-01T08:53:09.250Z,95475.54
2018-01-01T08:55:38.438Z,95461.17
2018-01-01T08:58:07.578Z,95451.76
2018-01-01T09:00:35.914Z,95451.09
2018-01-01T09:03:04.201Z,95448.98
2018-01-01T09:05:31.916Z,95442.67
2018-01-01T09:07:59.714Z,95435.49
2018-01-01T09:10:27.903Z,95428.12
2018-01-01T09:12:55.624Z,95431.79
2018-01-01T09:15:24.167Z,95397.00
2018-01-01T09:17:51.858Z,95417.38
2018-01-01T09:20:19.568Z,95412.55
2018-01-01T09:22:47.737Z,95411.11
2018-01-01T09:25:16.513Z,95414.36
2018-01-01T09:27:46.185Z,95418.70
2018-01-01T09:30:14.122Z,95417.12
2018-01-01T09:32:43.419Z,95416.03
2018-01-01T09:35:19.078Z,95411.56
2018-01-01T09:37:47.569Z,95409.62
2018-01-01T09:40:19.995Z,95382.63
2018-01-01T09:42:50.801Z,95398.37
2018-01-01T09:45:18.594Z,95386.81
2018-01-01T09:47:47.314Z,95394.27
2018-01-01T09:50:15.012Z,95328.81
2018-01-01T09:52:42.641Z,95385.25
2018-01-01T09:55:11.368Z,95376.25
2018-01-01T09:57:39.217Z,95376.06
2018-01-01T10:00:08.409Z,95373.70
2018-01-01T10:02:36.257Z,95377.83
2018-01-01T10:05:04.208Z,95368.45
2018-01-01T10:07:35.518Z,95371.32
2018-01-01T10:10:04.106Z,95367.56
2018-01-01T10:12:35.656Z,95354.88
2018-01-01T10:15:07.906Z,95354.17
2018-01-01T10:17:35.921Z,95351.17
2018-01-01T10:20:05.649Z,95347.27
2018-01-01T10:25:10.758Z,95335.09
2018-01-01T10:27:41.903Z,95344.05
2018-01-01T10:32:42.814Z,95334.12
2018-01-01T10:37:47.637Z,95328.12
2018-01-01T10:40:15.602Z,95323.36
2018-01-01T10:51:37.425Z,95307.63
2018-01-01T10:54:05.525Z,95310.08
2018-01-01T10:56:46.684Z,95316.72
2018-01-01T10:59:15.952Z,95318.14
2018-01-01T11:01:49.691Z,95313.14
2018-01-01T11:04:19.460Z,95301.42
2018-01-01T11:09:31.683Z,95299.78
2018-01-01T11:12:01.095Z,95291.92
2018-01-01T11:17:11.568Z,95284.39
2018-01-01T11:19:39.356Z,95274.98
2018-01-01T11:25:48.804Z,95270.78
2018-01-01T11:31:02.956Z,95257.19
2018-01-01T11:33:34.449Z,95258.23
2018-01-01T11:36:02.983Z,95255.17
2018-01-01T11:41:13.918Z,95250.91
2018-01-01T11:43:44.006Z,95248.28
2018-01-01T11:48:52.819Z,95241.13
2018-01-01T11:51:22.019Z,95233.95
2018-01-01T11:53:56.392Z,95232.63
2018-01-01T11:56:27.633Z,95230.00
2018-01-01T11:59:10.808Z,95234.66
2018-01-01T12:04:17.569Z,95216.67
2018-01-01T12:06:46.530Z,95212.09
2018-01-01T12:09:17.624Z,95221.36
2018-01-01T12:11:45.439Z,95221.75
2018-01-01T12:14:14.975Z,95220.29
2018-01-01T12:16:43.028Z,95210.76
2018-01-01T12:19:11.699Z,95210.97
2018-01-01T12:21:45.562Z,95206.72
2018-01-01T12:24:14.802Z,95200.47
2018-01-01T12:30:04.668Z,95182.73
2018-01-01T12:32:41.373Z,95191.16
2018-01-01T13:00:04.112Z,95157.69
2018-01-01T13:02:37.545Z,95161.64
2018-01-01T13:05:09.006Z,95154.91
2018-01-01T13:07:37.108Z,95151.78
2018-01-01T13:10:05.589Z,95148.22
2018-01-01T13:12:35.047Z,95155.23
2018-01-01T13:15:03.916Z,95150.31
2018-01-01T13:17:38.397Z,95142.47
2018-01-01T13:20:11.095Z,95137.84
2018-01-01T13:22:39.892Z,95048.91
2018-01-01T13:25:10.764Z,95132.95
2018-01-01T13:27:51.470Z,95143.79
2018-01-01T13:37:19.239Z,95138.09
2018-01-01T13:46:41.254Z,95105.27
2018-01-01T13:49:09.452Z,95104.88
2018-01-01T13:51:40.342Z,95107.19
2018-01-01T13:54:10.391Z,95111.55
2018-01-01T13:56:39.721Z,95110.84
2018-01-01T13:59:15.273Z,95063.98
2018-01-01T14:05:13.348Z,95097.37
2018-01-01T14:07:44.266Z,95096.77
2018-01-01T14:10:26.645Z,95096.27
2018-01-01T14:20:10.198Z,95089.00
2018-01-01T14:22:42.080Z,95087.78
2018-01-01T14:25:11.887Z,95089.37
2018-01-01T14:27:42.923Z,95067.75
2018-01-01T14:30:11.857Z,95101.37
2018-01-01T14:32:40.364Z,95104.98
2018-01-01T14:35:10.993Z,95096.56
2018-01-01T14:37:47.900Z,95098.08
2018-01-01T14:40:15.781Z,95107.02
2018-01-01T14:42:44.149Z,95100.52
2018-01-01T14:45:13.548Z,95099.09
2018-01-01T14:47:41.503Z,95095.80
2018-01-01T14:50:09.885Z,95084.05
2018-01-01T14:52:38.551Z,95084.33
2018-01-01T14:55:07.599Z,95074.50
2018-01-01T14:57:40.711Z,95073.27
2018-01-01T15:00:17.680Z,95068.23
2018-01-01T15:02:46.516Z,95053.16
2018-01-01T15:05:17.209Z,95072.55
2018-01-01T15:07:47.296Z,95083.27
2018-01-01T15:10:17.571Z,95072.91
2018-01-01T15:12:47.666Z,95075.61
2018-01-01T15:15:19.744Z,95065.77
2018-01-01T15:17:49.651Z,95054.70
2018-01-01T15:20:21.978Z,95063.99
2018-01-01T15:22:52.723Z,95057.95
2018-01-01T15:25:23.298Z,95072.03
2018-01-01T15:27:54.491Z,95069.63
2018-01-01T16:58:02.454Z,95062.14
2018-01-01T17:00:30.958Z,95073.52
2018-01-01T17:02:58.811Z,95075.79
2018-01-01T17:05:28.469Z,95066.69
2018-01-01T17:07:59.140Z,95066.87
2018-01-01T17:10:28.689Z,95056.41
2018-01-01T17:12:59.323Z,95055.47
2018-01-01T17:15:27.098Z,95059.30
2018-01-01T17:17:56.735Z,95056.40
2018-01-01T17:20:25.523Z,95051.20
2018-01-01T17:22:54.346Z,95048.20
2018-01-01T17:25:22.374Z,95061.11
2018-01-01T17:27:50.413Z,95049.55
2018-01-01T17:30:20.099Z,95043.66
2018-01-01T17:32:48.060Z,95024.91
2018-01-01T17:35:15.919Z,95042.23
2018-01-01T17:37:48.839Z,95048.41
2018-01-01T17:40:17.615Z,95047.41
2018-01-01T17:42:45.662Z,95042.98
2018-01-01T17:45:13.633Z,95039.02
2018-01-01T17:47:41.560Z,95036.25
2018-01-01T17:50:10.599Z,95037.03
2018-01-01T17:52:38.462Z,95036.01
2018-01-01T17:55:07.559Z,95032.88
2018-01-01T17:57:38.920Z,95038.55
2018-01-01T18:00:15.069Z,95025.48
2018-01-01T18:02:43.313Z,95018.80
2018-01-01T18:05:12.547Z,95027.23
2018-01-01T18:07:40.680Z,95013.20
2018-01-01T18:10:08.346Z,95029.33
2018-01-01T18:12:36.113Z,95031.50
2018-01-01T18:15:06.276Z,95018.23
2018-01-01T18:17:34.983Z,95021.45
2018-01-01T18:20:03.806Z,95017.01
2018-01-01T18:22:32.170Z,95014.63
2018-01-01T18:25:01.315Z,95014.19
2018-01-01T18:27:29.841Z,95013.59
2018-01-01T18:29:58.685Z,95001.05
2018-01-01T18:32:27.547Z,95002.64
2018-01-01T18:34:57.374Z,94999.40
2018-01-01T18:40:15.936Z,94995.60
2018-01-01T18:42:49.857Z,94994.88
2018-01-01T18:45:20.406Z,94983.28
2018-01-01T18:47:49.546Z,94977.40
2018-01-01T18:53:35.030Z,94990.95
2018-01-01T18:56:02.921Z,94990.18
2018-01-01T18:58:31.647Z,94948.72
2018-01-01T19:00:59.814Z,94984.02
2018-01-01T19:03:27.728Z,94973.92
2018-01-01T19:05:56.256Z,94978.20
2018-01-01T19:08:25.338Z,94975.42
2018-01-01T19:10:53.931Z,94984.28
2018-01-01T19:13:22.721Z,94989.16
2018-01-01T19:15:51.538Z,94988.45
2018-01-01T19:18:20.923Z,94989.31
2018-01-01T19:20:49.946Z,94992.63
2018-01-01T19:23:19.171Z,94992.77
2018-01-01T19:25:47.882Z,94990.22
2018-01-01T19:28:16.869Z,94979.20
2018-01-01T19:30:45.111Z,94988.91
2018-01-01T19:33:13.113Z,94983.33
2018-01-01T19:35:44.772Z,94989.25
2018-01-01T19:38:19.704Z,94983.70
2018-01-01T19:40:48.333Z,94972.35
2018-01-01T19:43:17.018Z,94968.97
2018-01-01T19:45:47.532Z,94964.24
2018-01-01T19:48:15.279Z,94954.84
2018-01-01T19:50:43.955Z,94932.27
2018-01-01T19:58:14.872Z,94940.59
2018-01-01T20:00:45.105Z,94938.47
2018-01-01T20:03:15.338Z,94920.48
2018-01-01T20:05:44.765Z,94923.34
2018-01-01T20:08:14.689Z,94924.49
2018-01-01T20:10:42.396Z,94931.25
2018-01-01T20:13:10.518Z,94940.37
2018-01-01T20:15:38.619Z,94939.40
2018-01-01T20:18:06.948Z,94949.18
2018-01-01T20:20:35.646Z,94943.78
2018-01-01T20:23:04.248Z,94934.27
2018-01-01T20:25:32.374Z,94932.03
2018-01-01T20:28:01.013Z,94938.11
2018-01-01T20:30:29.279Z,94938.08
2018-01-01T20:32:57.271Z,94928.54
2018-01-01T20:35:25.263Z,94939.45
2018-01-01T20:37:53.280Z,94937.23
2018-01-01T20:40:22.836Z,94932.39
2018-01-01T20:42:50.804Z,94925.30
2018-01-01T20:45:20.878Z,94934.59
2018-01-01T20:47:48.666Z,94940.66
2018-01-01T20:50:16.925Z,94926.98
2018-01-01T20:52:44.749Z,94929.45
2018-01-01T20:55:13.043Z,94920.91
2018-01-01T20:57:40.935Z,94914.73
2018-01-01T21:00:09.071Z,94915.59
2018-01-01T21:02:37.697Z,94911.87
2018-01-01T21:05:05.413Z,94913.53
2018-01-01T21:07:33.701Z,94904.73
2018-01-01T21:10:03.411Z,94904.75
2018-01-01T21:12:31.158Z,94908.47
2018-01-01T21:14:59.200Z,94908.43
2018-01-01T21:17:27.109Z,94914.65
2018-01-01T21:20:17.128Z,94908.05
2018-01-01T21:22:46.123Z,94900.25
2018-01-01T21:25:14.258Z,94895.08
2018-01-01T21:27:42.076Z,94895.05
2018-01-01T21:33:21.379Z,94891.09
2018-01-01T21:35:49.162Z,94893.49
2018-01-01T21:46:34.823Z,94889.22
2018-01-01T22:02:56.006Z,94868.53
2018-01-01T22:08:48.379Z,94870.13
2018-01-01T22:11:17.654Z,94864.59
2018-01-01T22:13:45.277Z,94867.03
2018-01-01T22:16:13.529Z,94860.89
2018-01-01T22:18:41.741Z,94870.05
2018-01-01T22:21:11.171Z,94864.77
2018-01-01T22:23:38.768Z,94859.50
2018-01-01T22:26:07.865Z,94851.19
2018-01-01T22:28:37.215Z,94859.50
2018-01-01T22:31:05.644Z,94853.67
2018-01-01T22:33:34.884Z,94861.50
2018-01-01T22:36:04.007Z,94858.50
2018-01-01T22:38:32.907Z,94869.77
2018-01-01T22:41:00.936Z,94862.95
2018-01-01T22:43:28.592Z,94861.75
2018-01-01T22:45:56.216Z,94858.91
2018-01-01T22:48:23.922Z,94855.36
2018-01-01T22:50:51.640Z,94869.55
2018-01-01T22:53:20.206Z,94858.55
2018-01-01T22:55:49.353Z,94849.39
2018-01-01T22:58:20.479Z,94849.58
2018-01-01T23:00:50.305Z,94838.22
2018-01-01T23:03:20.212Z,94836.89
2018-01-01T23:05:50.793Z,94832.14
2018-01-01T23:08:20.300Z,94836.09
2018-01-01T23:10:49.904Z,94833.41
2018-01-01T23:13:20.841Z,94821.27
2018-01-01T23:15:52.151Z,94829.47
2018-01-01T23:18:22.156Z,94819.58
2018-01-01T23:20:52.202Z,94824.66
2018-01-01T23:23:25.957Z,94809.08
2018-01-01T23:25:59.560Z,94807.59
2018-01-01T23:28:29.894Z,94792.58
2018-01-01T23:31:02.598Z,94821.45
2018-01-01T23:33:33.354Z,94799.51
2018-01-01T23:36:03.098Z,94798.47
2018-01-01T23:38:34.902Z,94797.99
2018-01-01T23:41:05.211Z,94800.86
2018-01-01T23:43:34.159Z,94807.98
2018-01-01T23:46:03.382Z,94790.22
2018-01-01T23:48:31.984Z,94776.80
2018-01-01T23:51:01.087Z,94774.55
2018-01-01T23:53:30.458Z,94762.24
2018-01-01T23:56:00.127Z,94769.41
2018-01-01T23:58:29.227Z,94788.02
